createdAt,value
2016-03-14T00:00:38.448Z,1038.78
2016-03-14T00:01:54.623Z,1038.77
2016-03-14T00:02:35.423Z,1038.82
2016-03-14T00:03:35.441Z,1038.75
2016-03-14T00:04:36.865Z,1038.77
2016-03-14T00:06:50.620Z,1038.8
2016-03-14T00:07:50.623Z,1038.83
2016-03-14T00:08:51.251Z,1038.81
2016-03-14T00:10:03.397Z,1038.82
2016-03-14T00:10:50.663Z,1038.83
2016-03-14T00:12:09.887Z,1038.81
2016-03-14T00:12:50.700Z,1038.83
2016-03-14T00:13:50.702Z,1038.84
2016-03-14T00:15:03.442Z,1038.86
2016-03-14T00:16:03.460Z,1038.87
2016-03-14T00:16:50.741Z,1038.82
2016-03-14T00:17:50.761Z,1038.83
2016-03-14T00:18:50.810Z,1038.83
2016-03-14T00:19:50.766Z,1038.85
2016-03-14T00:21:03.505Z,1038.9
2016-03-14T00:21:50.786Z,1038.86
2016-03-14T00:22:50.804Z,1038.88
2016-03-14T00:23:50.807Z,1038.87
2016-03-14T00:24:50.826Z,1038.87
2016-03-14T00:25:53.906Z,1038.92
2016-03-14T00:26:53.909Z,1038.89
2016-03-14T00:27:53.927Z,1038.87
2016-03-14T00:28:53.930Z,1038.88
2016-03-14T00:29:54.573Z,1038.84
2016-03-14T00:30:53.967Z,1038.85
2016-03-14T00:32:06.706Z,1038.83
2016-03-14T00:32:53.987Z,1038.82
2016-03-14T00:34:19.665Z,1038.8
2016-03-14T00:35:06.745Z,1038.77
2016-03-14T00:37:13.236Z,1038.75
2016-03-14T00:37:54.033Z,1038.7
2016-03-14T00:39:54.053Z,1038.75
2016-03-14T00:40:54.072Z,1038.72
2016-03-14T00:42:00.342Z,1038.71
2016-03-14T00:43:06.939Z,1038.69
2016-03-14T00:43:54.095Z,1038.69
2016-03-14T00:45:19.788Z,1038.71
2016-03-14T00:45:54.132Z,1038.7
2016-03-14T00:46:54.135Z,1038.69
2016-03-14T00:48:13.343Z,1038.69
2016-03-14T00:48:54.155Z,1038.69
2016-03-14T00:49:54.158Z,1038.69
2016-03-14T00:51:06.913Z,1038.68
2016-03-14T00:51:54.195Z,1038.64
2016-03-14T00:53:13.404Z,1038.67
2016-03-14T00:54:00.484Z,1038.64
2016-03-14T00:54:54.218Z,1038.62
2016-03-14T00:56:03.802Z,1038.61
2016-03-14T00:57:03.805Z,1038.63
2016-03-14T00:58:03.823Z,1038.58
2016-03-14T00:59:03.820Z,1038.55
2016-03-14T01:00:04.455Z,1038.62
2016-03-14T01:01:03.847Z,1038.58
2016-03-14T01:02:03.875Z,1038.61
2016-03-14T01:03:03.878Z,1038.58
2016-03-14T01:04:13.442Z,1038.57
2016-03-14T01:05:13.461Z,1038.57
2016-03-14T01:06:26.214Z,1038.59
2016-03-14T01:07:13.482Z,1038.58
2016-03-14T01:08:39.189Z,1038.53
2016-03-14T01:09:23.097Z,1038.56
2016-03-14T01:10:23.069Z,1038.59
2016-03-14T01:11:42.290Z,1038.57
2016-03-14T01:12:23.074Z,1038.54
2016-03-14T01:13:23.092Z,1038.54
2016-03-14T01:14:23.094Z,1038.58
2016-03-14T01:15:23.113Z,1038.52
2016-03-14T01:16:23.131Z,1038.5
2016-03-14T01:17:23.165Z,1038.5
2016-03-14T01:18:23.138Z,1038.5
2016-03-14T01:19:23.155Z,1038.52
2016-03-14T01:20:23.173Z,1038.54
2016-03-14T01:21:35.910Z,1038.52
2016-03-14T01:22:23.195Z,1038.55
2016-03-14T01:23:48.868Z,1038.56
2016-03-14T01:24:32.746Z,1038.56
2016-03-14T01:25:52.187Z,1038.52
2016-03-14T01:26:32.767Z,1038.5
2016-03-14T01:27:32.770Z,1038.54
2016-03-14T01:28:45.523Z,1038.52
2016-03-14T01:29:32.807Z,1038.51
2016-03-14T01:30:32.810Z,1038.53
2016-03-14T01:31:32.812Z,1038.55
2016-03-14T01:32:45.659Z,1038.56
2016-03-14T01:33:32.833Z,1038.54
2016-03-14T01:34:32.852Z,1038.55
2016-03-14T01:35:45.589Z,1038.55
2016-03-14T01:36:32.857Z,1038.55
2016-03-14T01:37:32.875Z,1038.52
2016-03-14T01:38:32.894Z,1038.54
2016-03-14T01:39:32.897Z,1038.54
2016-03-14T01:40:32.914Z,1038.55
2016-03-14T01:41:32.917Z,1038.52
2016-03-14T01:42:32.920Z,1038.56
2016-03-14T01:43:32.938Z,1038.52
2016-03-14T01:44:32.941Z,1038.53
2016-03-14T01:45:32.960Z,1038.51
2016-03-14T01:46:32.977Z,1038.51
2016-03-14T01:47:32.980Z,1038.51
2016-03-14T01:48:45.733Z,1038.46
2016-03-14T01:49:33.001Z,1038.47
2016-03-14T01:50:33.004Z,1038.44
2016-03-14T01:51:33.023Z,1038.41
2016-03-14T01:52:33.025Z,1038.39
2016-03-14T01:53:33.043Z,1038.38
2016-03-14T01:54:33.045Z,1038.35
2016-03-14T01:55:33.065Z,1038.34
2016-03-14T01:56:33.082Z,1038.37
2016-03-14T01:57:45.820Z,1038.33
2016-03-14T01:58:33.088Z,1038.3
2016-03-14T01:59:52.309Z,1038.3
2016-03-14T02:00:33.125Z,1038.29
2016-03-14T02:01:33.128Z,1038.3
2016-03-14T02:02:58.802Z,1038.32
2016-03-14T02:03:33.148Z,1038.33
2016-03-14T02:04:33.308Z,1038.33
2016-03-14T02:05:49.936Z,1038.34
2016-03-14T02:06:49.938Z,1038.3
2016-03-14T02:07:49.941Z,1038.27
2016-03-14T02:08:49.944Z,1038.26
2016-03-14T02:09:49.992Z,1038.26
2016-03-14T02:11:02.717Z,1038.24
2016-03-14T02:11:49.983Z,1038.25
2016-03-14T02:12:50.000Z,1038.31
2016-03-14T02:13:50.019Z,1038.26
2016-03-14T02:14:53.163Z,1038.23
2016-03-14T02:15:53.180Z,1038.29
2016-03-14T02:17:05.921Z,1038.26
2016-03-14T02:17:53.202Z,1038.23
2016-03-14T02:18:53.204Z,1038.3
2016-03-14T02:19:53.223Z,1038.28
2016-03-14T02:20:53.226Z,1038.25
2016-03-14T02:21:53.837Z,1038.28
2016-03-14T02:22:53.246Z,1038.24
2016-03-14T02:23:53.248Z,1038.24
2016-03-14T02:24:53.330Z,1038.3
2016-03-14T02:25:53.285Z,1038.26
2016-03-14T02:27:06.026Z,1038.28
2016-03-14T02:27:53.291Z,1038.23
2016-03-14T02:29:18.984Z,1038.21
2016-03-14T02:30:02.862Z,1038.19
2016-03-14T02:31:02.880Z,1038.19
2016-03-14T02:32:02.898Z,1038.2
2016-03-14T02:33:02.931Z,1038.14
2016-03-14T02:34:22.107Z,1038.12
2016-03-14T02:35:02.969Z,1038.13
2016-03-14T02:36:02.925Z,1038.09
2016-03-14T02:37:02.943Z,1038.12
2016-03-14T02:38:02.945Z,1038.09
2016-03-14T02:39:02.964Z,1038.12
2016-03-14T02:40:15.701Z,1038.09
2016-03-14T02:41:15.703Z,1038.06
2016-03-14T02:42:02.987Z,1038.1
2016-03-14T02:43:22.194Z,1038.09
2016-03-14T02:44:03.040Z,1038.13
2016-03-14T02:45:03.011Z,1038.08
2016-03-14T02:46:12.561Z,1038.1
2016-03-14T02:47:12.579Z,1038.05
2016-03-14T02:48:12.589Z,1038.07
2016-03-14T02:49:12.580Z,1038.04
2016-03-14T02:50:12.569Z,1038.05
2016-03-14T02:51:12.575Z,1038.02
2016-03-14T02:52:12.582Z,1038.02
2016-03-14T02:53:12.576Z,1038.04
2016-03-14T02:54:12.590Z,1038.03
2016-03-14T02:55:12.587Z,1038.01
2016-03-14T02:56:12.633Z,1038.05
2016-03-14T02:57:12.600Z,1038
2016-03-14T02:58:12.646Z,1038.04
2016-03-14T02:59:31.819Z,1038.01
2016-03-14T03:00:18.883Z,1038.02
2016-03-14T03:01:12.619Z,1038
2016-03-14T03:02:12.635Z,1038.01
2016-03-14T03:03:12.637Z,1038
2016-03-14T03:04:12.655Z,1037.97
2016-03-14T03:05:12.656Z,1037.97
2016-03-14T03:06:18.939Z,1037.93
2016-03-14T03:07:12.692Z,1037.96
2016-03-14T03:08:31.897Z,1037.9
2016-03-14T03:09:12.697Z,1037.92
2016-03-14T03:11:25.468Z,1037.98
2016-03-14T03:12:12.720Z,1037.96
2016-03-14T03:13:32.052Z,1037.99
2016-03-14T03:14:12.976Z,1037.97
2016-03-14T03:16:27.981Z,1037.93
2016-03-14T03:17:28.000Z,1037.95
2016-03-14T03:18:28.002Z,1037.94
2016-03-14T03:19:40.755Z,1037.97
2016-03-14T03:20:28.023Z,1037.95
2016-03-14T03:21:28.042Z,1037.96
2016-03-14T03:22:28.075Z,1038.03
2016-03-14T03:23:28.062Z,1038
2016-03-14T03:24:28.065Z,1037.96
2016-03-14T03:25:28.115Z,1037.97
2016-03-14T03:26:28.086Z,1037.94
2016-03-14T03:27:40.823Z,1037.92
2016-03-14T03:28:28.106Z,1037.9
2016-03-14T03:29:28.125Z,1037.9
2016-03-14T03:30:28.128Z,1037.9
2016-03-14T03:31:28.131Z,1037.88
2016-03-14T03:32:37.775Z,1037.89
2016-03-14T03:33:37.792Z,1037.87
2016-03-14T03:34:37.795Z,1037.88
2016-03-14T03:35:37.798Z,1037.88
2016-03-14T03:36:37.817Z,1037.87
2016-03-14T03:37:37.835Z,1037.91
2016-03-14T03:38:37.838Z,1037.89
2016-03-14T03:39:37.855Z,1037.83
2016-03-14T03:40:37.858Z,1037.85
2016-03-14T03:41:37.861Z,1037.81
2016-03-14T03:42:57.083Z,1037.8
2016-03-14T03:43:37.882Z,1037.8
2016-03-14T03:45:47.434Z,1037.8
2016-03-14T03:46:47.452Z,1037.77
2016-03-14T03:47:47.454Z,1037.76
2016-03-14T03:48:47.458Z,1037.8
2016-03-14T03:49:47.476Z,1037.78
2016-03-14T03:50:47.479Z,1037.84
2016-03-14T03:51:47.497Z,1037.86
2016-03-14T03:52:47.501Z,1037.87
2016-03-14T03:53:47.518Z,1037.89
2016-03-14T03:54:47.552Z,1037.88
2016-03-14T03:55:47.523Z,1037.89
2016-03-14T03:56:47.542Z,1037.91
2016-03-14T03:57:47.559Z,1037.9
2016-03-14T03:59:00.297Z,1037.96
2016-03-14T03:59:47.565Z,1037.92
2016-03-14T04:01:13.258Z,1037.91
2016-03-14T04:01:57.117Z,1037.94
2016-03-14T04:03:16.357Z,1037.91
2016-03-14T04:04:09.875Z,1037.92
2016-03-14T04:04:57.172Z,1037.96
2016-03-14T04:06:23.334Z,1038
2016-03-14T04:06:57.163Z,1037.97
2016-03-14T04:08:06.855Z,1037.96
2016-03-14T04:09:32.546Z,1037.93
2016-03-14T04:10:16.642Z,1037.93
2016-03-14T04:11:16.645Z,1037.9
2016-03-14T04:12:42.335Z,1037.89
2016-03-14T04:13:26.274Z,1037.91
2016-03-14T04:14:45.496Z,1037.91
2016-03-14T04:15:41.905Z,1037.95
2016-03-14T04:17:01.315Z,1037.94
2016-03-14T04:17:35.646Z,1037.97
2016-03-14T04:18:35.664Z,1037.94
2016-03-14T04:19:50.853Z,1037.96
2016-03-14T04:20:50.887Z,1037.96
2016-03-14T04:21:50.874Z,1037.98
2016-03-14T04:22:51.002Z,1037.92
2016-03-14T04:23:57.177Z,1037.95
2016-03-14T04:25:03.649Z,1037.92
2016-03-14T04:26:10.154Z,1037.93
2016-03-14T04:27:20.438Z,1037.96
2016-03-14T04:28:31.769Z,1037.98
2016-03-14T04:29:19.053Z,1037.97
2016-03-14T04:30:38.274Z,1037.97
2016-03-14T04:31:22.214Z,1037.99
2016-03-14T04:32:31.795Z,1038.03
2016-03-14T04:33:41.439Z,1037.98
2016-03-14T04:34:41.457Z,1038.02
2016-03-14T04:35:54.194Z,1038.03
2016-03-14T04:37:07.136Z,1038.03
2016-03-14T04:38:22.342Z,1038.07
2016-03-14T04:39:22.345Z,1038.05
2016-03-14T04:40:22.364Z,1038.07
2016-03-14T04:41:35.116Z,1038.06
2016-03-14T04:42:35.119Z,1038.03
2016-03-14T04:43:48.058Z,1038.04
2016-03-14T04:44:51.203Z,1038.04
2016-03-14T04:45:51.205Z,1038.04
2016-03-14T04:47:00.755Z,1038.06
2016-03-14T04:49:16.090Z,1038.03
2016-03-14T04:50:16.109Z,1038.02
2016-03-14T04:51:17.534Z,1038.05
2016-03-14T04:52:16.130Z,1038.07
2016-03-14T04:53:28.882Z,1038.04
2016-03-14T04:54:16.151Z,1038.07
2016-03-14T04:55:28.904Z,1038.07
2016-03-14T04:57:31.456Z,1038.04
2016-03-14T04:58:31.443Z,1038.04
2016-03-14T04:59:44.195Z,1038.03
2016-03-14T05:00:31.464Z,1038.01
2016-03-14T05:01:31.467Z,1038.06
2016-03-14T05:02:34.610Z,1038.04
2016-03-14T05:04:00.285Z,1038.02
2016-03-14T05:04:34.662Z,1038.04
2016-03-14T05:06:51.855Z,1038.03
2016-03-14T05:07:39.139Z,1037.98
2016-03-14T05:09:04.814Z,1038.01
2016-03-14T05:09:48.801Z,1038.04
2016-03-14T05:10:48.819Z,1038.04
2016-03-14T05:11:49.025Z,1038.02
2016-03-14T05:12:55.121Z,1038.06
2016-03-14T05:13:48.843Z,1038.03
2016-03-14T05:15:01.580Z,1038.05
2016-03-14T05:16:08.069Z,1038.03
2016-03-14T05:16:48.882Z,1038
2016-03-14T05:18:14.543Z,1038.02
2016-03-14T05:18:53.418Z,1037.99
2016-03-14T05:21:34.286Z,1038.07
2016-03-14T05:22:08.632Z,1038.11
2016-03-14T05:23:08.635Z,1038.1
2016-03-14T05:24:18.168Z,1038.09
2016-03-14T05:26:21.315Z,1038.07
2016-03-14T05:27:21.318Z,1038.08
2016-03-14T05:28:21.336Z,1038.05
2016-03-14T05:29:21.339Z,1038.12
2016-03-14T05:30:34.091Z,1038.14
2016-03-14T05:31:21.359Z,1038.1
2016-03-14T05:32:21.394Z,1038.11
2016-03-14T05:33:47.053Z,1038.12
2016-03-14T05:34:22.039Z,1038.15
2016-03-14T05:35:21.402Z,1038.15
2016-03-14T05:36:30.967Z,1038.21
2016-03-14T05:37:40.611Z,1038.23
2016-03-14T05:38:50.223Z,1038.27
2016-03-14T05:39:59.850Z,1038.26
2016-03-14T05:40:59.869Z,1038.27
2016-03-14T05:43:34.470Z,1038.29
2016-03-14T05:45:50.272Z,1038.27
2016-03-14T05:47:59.871Z,1038.25
2016-03-14T05:50:09.457Z,1038.22
2016-03-14T05:52:50.323Z,1038.26
2016-03-14T05:53:24.654Z,1038.29
2016-03-14T05:55:40.143Z,1038.3
2016-03-14T05:56:40.130Z,1038.28
2016-03-14T05:57:40.132Z,1038.31
2016-03-14T05:58:55.557Z,1038.32
2016-03-14T05:59:55.341Z,1038.3
2016-03-14T06:00:55.594Z,1038.28
2016-03-14T06:01:55.347Z,1038.28
2016-03-14T06:02:55.350Z,1038.24
2016-03-14T06:03:55.383Z,1038.26
2016-03-14T06:04:55.386Z,1038.22
2016-03-14T06:05:55.466Z,1038.22
2016-03-14T06:06:55.397Z,1038.24
2016-03-14T06:08:08.152Z,1038.23
2016-03-14T06:08:55.620Z,1038.17
2016-03-14T06:10:14.641Z,1038.21
2016-03-14T06:10:55.438Z,1038.25
2016-03-14T06:12:21.130Z,1038.26
2016-03-14T06:13:14.666Z,1038.21
2016-03-14T06:13:58.541Z,1038.24
2016-03-14T06:14:58.558Z,1038.27
2016-03-14T06:15:58.561Z,1038.24
2016-03-14T06:17:13.816Z,1038.27
2016-03-14T06:18:13.787Z,1038.27
2016-03-14T06:19:26.541Z,1038.28
2016-03-14T06:20:26.543Z,1038.31
2016-03-14T06:21:39.499Z,1038.32
2016-03-14T06:22:36.142Z,1038.32
2016-03-14T06:23:48.879Z,1038.41
2016-03-14T06:24:39.929Z,1038.36
2016-03-14T06:25:39.948Z,1038.34
2016-03-14T06:26:40.153Z,1038.34
2016-03-14T06:27:39.968Z,1038.33
2016-03-14T06:28:52.705Z,1038.3
2016-03-14T06:29:39.989Z,1038.3
2016-03-14T06:31:05.664Z,1038.29
2016-03-14T06:31:49.573Z,1038.29
2016-03-14T06:32:49.576Z,1038.23
2016-03-14T06:33:49.594Z,1038.22
2016-03-14T06:35:08.817Z,1038.25
2016-03-14T06:36:24.102Z,1038.19
2016-03-14T06:37:30.386Z,1038.16
2016-03-14T06:38:24.123Z,1038.16
2016-03-14T06:39:36.875Z,1038.21
2016-03-14T06:40:24.160Z,1038.22
2016-03-14T06:41:43.365Z,1038.24
2016-03-14T06:42:24.181Z,1038.26
2016-03-14T06:43:24.183Z,1038.22
2016-03-14T06:44:24.202Z,1038.25
2016-03-14T06:45:49.876Z,1038.24
2016-03-14T06:46:33.785Z,1038.25
2016-03-14T06:47:53.006Z,1038.22
2016-03-14T06:48:36.884Z,1038.2
2016-03-14T06:49:36.902Z,1038.25
2016-03-14T06:50:37.515Z,1038.28
2016-03-14T06:52:02.704Z,1038.31
2016-03-14T06:52:46.926Z,1038.32
2016-03-14T06:53:46.944Z,1038.32
2016-03-14T06:54:50.306Z,1038.33
2016-03-14T06:55:56.575Z,1038.38
2016-03-14T06:56:50.328Z,1038.36
2016-03-14T06:58:09.536Z,1038.37
2016-03-14T06:58:56.614Z,1038.41
2016-03-14T07:01:00.120Z,1038.41
2016-03-14T07:03:00.140Z,1038.46
2016-03-14T07:04:00.159Z,1038.44
2016-03-14T07:05:00.161Z,1038.4
2016-03-14T07:06:00.180Z,1038.42
2016-03-14T07:07:00.183Z,1038.37
2016-03-14T07:08:00.201Z,1038.34
2016-03-14T07:09:00.204Z,1038.33
2016-03-14T07:10:00.222Z,1038.34
2016-03-14T07:11:00.241Z,1038.3
2016-03-14T07:12:00.243Z,1038.31
2016-03-14T07:13:00.246Z,1038.3
2016-03-14T07:15:40.644Z,1038.28
2016-03-14T07:16:14.991Z,1038.24
2016-03-14T07:17:15.055Z,1038.22
2016-03-14T07:18:21.278Z,1038.25
2016-03-14T07:19:15.093Z,1038.25
2016-03-14T07:20:34.486Z,1038.26
2016-03-14T07:21:15.660Z,1038.23
2016-03-14T07:22:40.741Z,1038.25
2016-03-14T07:23:24.634Z,1038.25
2016-03-14T07:24:43.841Z,1038.22
2016-03-14T07:25:27.718Z,1038.22
2016-03-14T07:27:37.379Z,1038.22
2016-03-14T07:29:40.478Z,1038.22
2016-03-14T07:30:40.497Z,1038.2
2016-03-14T07:31:40.500Z,1038.22
2016-03-14T07:32:40.518Z,1038.19
2016-03-14T07:33:46.803Z,1038.2
2016-03-14T07:34:56.351Z,1038.19
2016-03-14T07:35:56.370Z,1038.23
2016-03-14T07:36:56.373Z,1038.2
2016-03-14T07:37:56.407Z,1038.21
2016-03-14T07:38:56.409Z,1038.21
2016-03-14T07:39:56.427Z,1038.18
2016-03-14T07:40:56.430Z,1038.26
2016-03-14T07:41:56.449Z,1038.23
2016-03-14T07:42:56.452Z,1038.21
2016-03-14T07:43:56.501Z,1038.26
2016-03-14T07:45:02.738Z,1038.22
2016-03-14T07:45:56.506Z,1038.22
2016-03-14T07:47:15.730Z,1038.21
2016-03-14T07:48:09.264Z,1038.23
2016-03-14T07:50:12.004Z,1038.28
2016-03-14T07:51:12.022Z,1038.22
2016-03-14T07:52:12.025Z,1038.25
2016-03-14T07:53:24.778Z,1038.27
2016-03-14T07:54:12.046Z,1038.29
2016-03-14T07:55:12.065Z,1038.29
2016-03-14T07:56:24.832Z,1038.31
2016-03-14T07:57:12.101Z,1038.29
2016-03-14T07:58:31.322Z,1038.24
2016-03-14T07:59:12.732Z,1038.26
2016-03-14T08:00:12.140Z,1038.25
2016-03-14T08:01:21.674Z,1038.3
2016-03-14T08:02:47.364Z,1038.29
2016-03-14T08:03:23.117Z,1038.3
2016-03-14T08:04:21.729Z,1038.28
2016-03-14T08:05:36.904Z,1038.31
2016-03-14T08:06:36.966Z,1038.28
2016-03-14T08:07:49.672Z,1038.3
2016-03-14T08:08:37.549Z,1038.33
2016-03-14T08:09:37.209Z,1038.34
2016-03-14T08:10:36.977Z,1038.36
2016-03-14T08:11:37.605Z,1038.31
2016-03-14T08:12:56.216Z,1038.34
2016-03-14T08:14:37.034Z,1038.31
2016-03-14T08:15:37.052Z,1038.3
2016-03-14T08:16:37.071Z,1038.34
2016-03-14T08:17:37.089Z,1038.35
2016-03-14T08:18:37.091Z,1038.34
2016-03-14T08:19:49.860Z,1038.31
2016-03-14T08:20:37.737Z,1038.34
2016-03-14T08:21:37.146Z,1038.36
2016-03-14T08:22:37.165Z,1038.28
2016-03-14T08:24:02.855Z,1038.31
2016-03-14T08:24:37.186Z,1038.28
2016-03-14T08:25:37.204Z,1038.3
2016-03-14T08:26:43.520Z,1038.24
2016-03-14T08:27:37.241Z,1038.26
2016-03-14T08:28:43.540Z,1038.22
2016-03-14T08:29:37.481Z,1038.2
2016-03-14T08:30:37.280Z,1038.16
2016-03-14T08:31:43.564Z,1038.1
2016-03-14T08:32:37.458Z,1038.09
2016-03-14T08:33:37.320Z,1038.13
2016-03-14T08:34:37.338Z,1038.13
2016-03-14T08:35:37.356Z,1038.13
2016-03-14T08:36:37.422Z,1038.11
2016-03-14T08:37:37.377Z,1038.12
2016-03-14T08:38:37.395Z,1038.08
2016-03-14T08:39:37.414Z,1038.09
2016-03-14T08:40:43.698Z,1038.12
2016-03-14T08:41:50.186Z,1038.1
2016-03-14T08:42:37.688Z,1038.06
2016-03-14T08:43:56.691Z,1038.07
2016-03-14T08:44:38.912Z,1038.08
2016-03-14T08:45:37.508Z,1038.07
2016-03-14T08:46:37.527Z,1038.08
2016-03-14T08:49:18.738Z,1038.09
2016-03-14T08:49:53.519Z,1038.1
2016-03-14T08:50:53.100Z,1038.12
2016-03-14T08:51:53.118Z,1038.11
2016-03-14T08:52:53.121Z,1038.1
2016-03-14T08:54:05.968Z,1038.09
2016-03-14T08:54:53.173Z,1038.12
2016-03-14T08:55:53.176Z,1038.1
2016-03-14T08:56:53.194Z,1038.09
2016-03-14T08:59:05.949Z,1038.09
2016-03-14T08:59:53.249Z,1038.08
2016-03-14T09:01:18.926Z,1038.04
2016-03-14T09:02:06.004Z,1038.07
2016-03-14T09:03:53.306Z,1038.06
2016-03-14T09:04:53.309Z,1038.02
2016-03-14T09:05:53.328Z,1038.03
2016-03-14T09:07:05.987Z,1038.01
2016-03-14T09:08:05.989Z,1038.02
2016-03-14T09:09:06.242Z,1038.02
2016-03-14T09:10:06.025Z,1038
2016-03-14T09:11:06.028Z,1037.97
2016-03-14T09:12:15.486Z,1037.97
2016-03-14T09:13:34.911Z,1037.96
2016-03-14T09:14:09.258Z,1037.95
2016-03-14T09:15:09.277Z,1037.93
2016-03-14T09:16:34.966Z,1037.93
2016-03-14T09:17:09.907Z,1037.92
2016-03-14T09:19:24.710Z,1037.92
2016-03-14T09:20:24.727Z,1037.95
2016-03-14T09:21:24.730Z,1037.95
2016-03-14T09:22:24.748Z,1037.89
2016-03-14T09:23:24.766Z,1037.89
2016-03-14T09:24:37.518Z,1037.87
2016-03-14T09:25:25.038Z,1037.88
2016-03-14T09:26:24.806Z,1037.88
2016-03-14T09:27:44.027Z,1037.82
2016-03-14T09:28:24.873Z,1037.81
2016-03-14T09:30:40.192Z,1037.87
2016-03-14T09:31:40.194Z,1037.81
2016-03-14T09:32:40.229Z,1037.79
2016-03-14T09:33:40.247Z,1037.81
2016-03-14T09:34:40.265Z,1037.81
2016-03-14T09:35:40.267Z,1037.76
2016-03-14T09:36:40.895Z,1037.76
2016-03-14T09:37:40.304Z,1037.76
2016-03-14T09:38:40.307Z,1037.75
2016-03-14T09:39:40.325Z,1037.75
2016-03-14T09:40:40.344Z,1037.73
2016-03-14T09:41:53.097Z,1037.7
2016-03-14T09:42:53.115Z,1037.7
2016-03-14T09:43:40.383Z,1037.71
2016-03-14T09:44:43.698Z,1037.73
2016-03-14T09:45:43.951Z,1037.7
2016-03-14T09:46:43.719Z,1037.71
2016-03-14T09:47:43.738Z,1037.71
2016-03-14T09:48:43.755Z,1037.67
2016-03-14T09:49:43.774Z,1037.68
2016-03-14T09:50:43.777Z,1037.69
2016-03-14T09:51:43.810Z,1037.71
2016-03-14T09:52:43.830Z,1037.68
2016-03-14T09:53:43.879Z,1037.72
2016-03-14T09:54:48.225Z,1037.69
2016-03-14T09:55:48.243Z,1037.68
2016-03-14T09:56:48.262Z,1037.67
2016-03-14T09:57:48.264Z,1037.61
2016-03-14T09:58:48.282Z,1037.63
2016-03-14T10:00:01.051Z,1037.64
2016-03-14T10:00:54.585Z,1037.58
2016-03-14T10:01:48.338Z,1037.61
2016-03-14T10:02:48.340Z,1037.63
2016-03-14T10:03:48.421Z,1037.64
2016-03-14T10:05:14.098Z,1037.64
2016-03-14T10:05:48.395Z,1037.61
2016-03-14T10:07:48.425Z,1037.58
2016-03-14T10:08:48.476Z,1037.58
2016-03-14T10:09:48.463Z,1037.57
2016-03-14T10:10:48.716Z,1037.56
2016-03-14T10:11:48.499Z,1037.53
2016-03-14T10:12:48.502Z,1037.56
2016-03-14T10:13:48.536Z,1037.53
2016-03-14T10:14:48.789Z,1037.49
2016-03-14T10:15:48.760Z,1037.49
2016-03-14T10:16:48.779Z,1037.52
2016-03-14T10:17:48.640Z,1037.5
2016-03-14T10:18:48.612Z,1037.49
2016-03-14T10:19:48.833Z,1037.48
2016-03-14T10:20:48.664Z,1037.44
2016-03-14T10:22:14.341Z,1037.44
2016-03-14T10:23:01.498Z,1037.42
2016-03-14T10:23:58.454Z,1037.4
2016-03-14T10:24:58.471Z,1037.42
2016-03-14T10:26:11.224Z,1037.38
2016-03-14T10:26:59.118Z,1037.38
2016-03-14T10:27:58.511Z,1037.32
2016-03-14T10:29:11.343Z,1037.31
2016-03-14T10:29:58.548Z,1037.32
2016-03-14T10:31:17.772Z,1037.3
2016-03-14T10:32:04.850Z,1037.26
2016-03-14T10:32:58.603Z,1037.26
2016-03-14T10:33:58.606Z,1037.3
2016-03-14T10:34:58.640Z,1037.29
2016-03-14T10:35:58.845Z,1037.28
2016-03-14T10:36:58.660Z,1037.23
2016-03-14T10:37:58.678Z,1037.19
2016-03-14T10:38:58.900Z,1037.14
2016-03-14T10:39:58.716Z,1037.13
2016-03-14T10:40:58.733Z,1037.13
2016-03-14T10:41:58.752Z,1037.04
2016-03-14T10:42:59.005Z,1037.03
2016-03-14T10:43:58.789Z,1037.06
2016-03-14T10:44:58.791Z,1037.02
2016-03-14T10:45:58.825Z,1037.03
2016-03-14T10:47:11.563Z,1037.01
2016-03-14T10:47:58.862Z,1036.99
2016-03-14T10:48:58.865Z,1036.93
2016-03-14T10:50:02.211Z,1036.92
2016-03-14T10:51:02.463Z,1036.91
2016-03-14T10:52:02.248Z,1036.92
2016-03-14T10:53:02.265Z,1036.91
2016-03-14T10:54:02.268Z,1036.92
2016-03-14T10:55:21.570Z,1036.88
2016-03-14T10:56:02.304Z,1036.97
2016-03-14T10:57:02.340Z,1036.91
2016-03-14T10:58:02.607Z,1036.9
2016-03-14T10:59:02.970Z,1036.91
2016-03-14T11:00:02.644Z,1036.91
2016-03-14T11:01:02.398Z,1036.91
2016-03-14T11:02:02.416Z,1036.91
2016-03-14T11:03:02.434Z,1036.94
2016-03-14T11:04:02.452Z,1036.92
2016-03-14T11:05:02.471Z,1036.9
2016-03-14T11:06:15.210Z,1036.88
2016-03-14T11:07:03.101Z,1036.88
2016-03-14T11:08:02.526Z,1036.84
2016-03-14T11:09:02.545Z,1036.77
2016-03-14T11:10:02.593Z,1036.76
2016-03-14T11:11:03.175Z,1036.78
2016-03-14T11:12:02.583Z,1036.72
2016-03-14T11:13:04.023Z,1036.76
2016-03-14T11:14:28.342Z,1036.75
2016-03-14T11:15:43.798Z,1036.78
2016-03-14T11:17:09.253Z,1036.8
2016-03-14T11:17:56.350Z,1036.77
2016-03-14T11:18:43.805Z,1036.75
2016-03-14T11:19:46.667Z,1036.74
2016-03-14T11:20:44.452Z,1036.71
2016-03-14T11:21:56.614Z,1036.7
2016-03-14T11:22:45.147Z,1036.71
2016-03-14T11:23:43.712Z,1036.66
2016-03-14T11:24:56.418Z,1036.66
2016-03-14T11:25:43.983Z,1036.71
2016-03-14T11:27:02.955Z,1036.63
2016-03-14T11:27:43.988Z,1036.64
2016-03-14T11:28:44.022Z,1036.65
2016-03-14T11:29:43.822Z,1036.62
2016-03-14T11:31:59.547Z,1036.59
2016-03-14T11:32:59.408Z,1036.59
2016-03-14T11:34:00.021Z,1036.54
2016-03-14T11:34:59.446Z,1036.56
2016-03-14T11:35:59.416Z,1036.51
2016-03-14T11:36:59.435Z,1036.54
2016-03-14T11:37:59.453Z,1036.53
2016-03-14T11:40:15.086Z,1036.58
2016-03-14T11:41:15.105Z,1036.58
2016-03-14T11:42:15.123Z,1036.59
2016-03-14T11:43:15.141Z,1036.51
2016-03-14T11:44:21.472Z,1036.5
2016-03-14T11:45:15.240Z,1036.49
2016-03-14T11:46:15.337Z,1036.51
2016-03-14T11:47:16.683Z,1036.49
2016-03-14T11:48:15.264Z,1036.52
2016-03-14T11:49:40.986Z,1036.51
2016-03-14T11:50:31.754Z,1036.5
2016-03-14T11:51:26.897Z,1036.49
2016-03-14T11:52:25.509Z,1036.53
2016-03-14T11:53:26.136Z,1036.42
2016-03-14T11:54:38.242Z,1036.45
2016-03-14T11:55:26.173Z,1036.45
2016-03-14T11:56:25.556Z,1036.45
2016-03-14T11:57:25.783Z,1036.43
2016-03-14T11:58:25.595Z,1036.42
2016-03-14T11:59:44.810Z,1036.44
2016-03-14T12:00:26.231Z,1036.35
2016-03-14T12:01:25.777Z,1036.36
2016-03-14T12:02:45.167Z,1036.32
2016-03-14T12:03:25.681Z,1036.29
2016-03-14T12:05:25.699Z,1036.23
2016-03-14T12:06:25.685Z,1036.2
2016-03-14T12:07:38.453Z,1036.2
2016-03-14T12:08:25.782Z,1036.18
2016-03-14T12:09:25.800Z,1036.19
2016-03-14T12:10:26.396Z,1036.14
2016-03-14T12:11:51.508Z,1036.09
2016-03-14T12:12:36.105Z,1036.06
2016-03-14T12:13:36.340Z,1036.01
2016-03-14T12:14:36.374Z,1035.98
2016-03-14T12:15:35.939Z,1035.98
2016-03-14T12:16:36.004Z,1035.95
2016-03-14T12:17:36.241Z,1035.93
2016-03-14T12:18:36.039Z,1035.92
2016-03-14T12:19:42.292Z,1035.96
2016-03-14T12:20:36.263Z,1035.97
2016-03-14T12:21:55.313Z,1035.93
2016-03-14T12:22:36.081Z,1035.91
2016-03-14T12:24:36.399Z,1035.87
2016-03-14T12:25:36.449Z,1035.88
2016-03-14T12:26:37.654Z,1035.83
2016-03-14T12:27:36.220Z,1035.84
2016-03-14T12:29:14.628Z,1035.75
2016-03-14T12:29:36.273Z,1035.78
2016-03-14T12:30:49.041Z,1035.78
2016-03-14T12:31:37.684Z,1035.75
2016-03-14T12:32:36.343Z,1035.74
2016-03-14T12:34:52.707Z,1035.71
2016-03-14T12:35:52.584Z,1035.7
2016-03-14T12:36:52.526Z,1035.66
2016-03-14T12:37:52.809Z,1035.6
2016-03-14T12:38:52.609Z,1035.59
2016-03-14T12:39:52.612Z,1035.57
2016-03-14T12:40:53.256Z,1035.56
2016-03-14T12:41:52.851Z,1035.6
2016-03-14T12:42:52.683Z,1035.58
2016-03-14T12:43:52.903Z,1035.6
2016-03-14T12:44:53.156Z,1035.62
2016-03-14T12:45:52.846Z,1035.63
2016-03-14T12:46:52.771Z,1035.64
2016-03-14T12:47:53.399Z,1035.63
2016-03-14T12:48:52.807Z,1035.62
2016-03-14T12:50:12.263Z,1035.63
2016-03-14T12:51:15.094Z,1035.63
2016-03-14T12:52:18.755Z,1035.56
2016-03-14T12:54:09.900Z,1035.58
2016-03-14T12:55:09.558Z,1035.51
2016-03-14T12:56:09.998Z,1035.51
2016-03-14T12:57:09.564Z,1035.51
2016-03-14T12:58:09.785Z,1035.46
2016-03-14T12:59:10.976Z,1035.41
2016-03-14T13:00:10.040Z,1035.39
2016-03-14T13:01:10.840Z,1035.37